KTOA/TOA METAR and TAF weather

Enter ICAO airport designator
Station Type Date Time Source
KTOA METAR 2019/10/21 02:47 UTC NOAA

KTOA 210247Z 25008KT 10SM SKC 23/08 A2986


Station Type Date Time Source
KTOA Decoded METAR 2019/10/21 02:47 UTC NOAA

Torrance, Zamperini Field Airport, CA, United States (KTOA) 33-48N 118-20W
Oct 20, 2019 - 10:47 PM EDT / 2019.10.21 0247 UTC
Wind: from the WSW (250 degrees) at 9 MPH (8 KT):0
Visibility: 10 mile(s):0
Sky conditions: clear
Temperature: 73 F (23 C)
Dew Point: 46 F (8 C)
Relative Humidity: 38%
Pressure (altimeter): 29.86 in. Hg (1011 hPa)
ob: KTOA 210247Z 25008KT 10SM SKC 23/08 A2986
cycle: 3

Station Type Date Time Source
KTOA TAF UTC NOAA

Error!

Example: see airport list